createdAt,value
2022-10-21T00:00:55.043Z,21.58
2022-10-21T00:03:24.043Z,18.23
2022-10-21T00:05:52.345Z,14.57
2022-10-21T00:08:20.470Z,15.95
2022-10-21T00:10:54.673Z,14.23
2022-10-21T00:13:23.313Z,14.50
2022-10-21T00:16:09.153Z,17.45
2022-10-21T00:18:37.939Z,14.13
2022-10-21T00:21:10.275Z,14.38
2022-10-21T00:23:37.967Z,15.52
2022-10-21T00:26:06.198Z,14.77
2022-10-21T00:28:33.914Z,15.15
2022-10-21T00:31:01.395Z,15.98
2022-10-21T00:33:29.426Z,15.18
2022-10-21T00:35:59.190Z,17.92
2022-10-21T00:38:26.540Z,17.50
2022-10-21T00:40:53.973Z,15.75
2022-10-21T00:43:21.109Z,17.63
2022-10-21T00:45:52.769Z,15.70
2022-10-21T00:48:30.865Z,18.48
2022-10-21T00:51:06.597Z,18.13
2022-10-21T00:53:37.445Z,20.73
2022-10-21T00:56:15.414Z,16.38
2022-10-21T00:58:45.768Z,19.52
2022-10-21T01:01:16.648Z,17.38
2022-10-21T01:03:46.951Z,16.15
2022-10-21T01:06:15.867Z,18.90
2022-10-21T01:08:43.754Z,17.80
2022-10-21T01:11:16.079Z,17.15
2022-10-21T01:14:03.746Z,18.65
2022-10-21T01:16:48.235Z,17.15
2022-10-21T01:19:35.987Z,17.55
2022-10-21T01:22:56.769Z,17.50
2022-10-21T01:25:45.655Z,14.98
2022-10-21T01:28:24.996Z,17.88
2022-10-21T01:31:27.409Z,20.10
2022-10-21T01:33:54.588Z,17.13
2022-10-21T01:36:28.739Z,18.10
2022-10-21T01:39:31.528Z,16.10
2022-10-21T01:42:11.540Z,18.33
2022-10-21T01:44:58.075Z,16.20
2022-10-21T01:47:32.972Z,17.65
2022-10-21T01:50:25.579Z,22.13
2022-10-21T01:52:58.031Z,19.45
2022-10-21T01:55:30.038Z,19.63
2022-10-21T01:58:04.336Z,16.95
2022-10-21T02:00:33.988Z,20.10
2022-10-21T02:03:05.216Z,16.60
2022-10-21T02:05:33.347Z,18.88
2022-10-21T02:08:00.599Z,18.63
2022-10-21T02:10:33.761Z,18.48
2022-10-21T02:13:04.696Z,17.38
2022-10-21T02:15:34.702Z,17.65
2022-10-21T02:18:08.460Z,17.52
2022-10-21T02:20:41.349Z,17.85
2022-10-21T02:23:12.825Z,18.45
2022-10-21T02:25:42.865Z,17.73
2022-10-21T02:28:12.009Z,19.48
2022-10-21T02:31:09.696Z,19.10
2022-10-21T02:34:08.107Z,20.63
2022-10-21T02:36:42.286Z,18.13
2022-10-21T02:39:19.109Z,18.58
2022-10-21T02:41:50.376Z,19.35
2022-10-21T02:44:17.833Z,20.27
2022-10-21T02:46:48.195Z,19.73
2022-10-21T02:51:43.151Z,16.38
2022-10-21T02:54:10.318Z,21.30
2022-10-21T02:56:37.507Z,20.42
2022-10-21T02:59:04.717Z,18.13
2022-10-21T03:01:32.051Z,20.67
2022-10-21T03:03:59.171Z,20.58
2022-10-21T03:06:26.429Z,18.13
2022-10-21T03:08:53.842Z,22.25
2022-10-21T03:11:21.176Z,19.90
2022-10-21T03:13:48.267Z,22.05
2022-10-21T03:16:15.620Z,20.92
2022-10-21T03:18:42.966Z,21.45
2022-10-21T03:21:10.545Z,21.02
2022-10-21T03:23:37.567Z,20.98
2022-10-21T03:26:04.717Z,17.13
2022-10-21T03:28:31.797Z,21.95
2022-10-21T03:30:59.097Z,19.17
2022-10-21T03:33:26.418Z,17.85
2022-10-21T03:35:53.475Z,20.23
2022-10-21T03:38:20.769Z,18.98
2022-10-21T03:40:48.136Z,20.60
2022-10-21T03:43:15.441Z,19.10
2022-10-21T03:45:42.819Z,18.55
2022-10-21T03:48:10.085Z,21.05
2022-10-21T03:50:37.266Z,21.67
2022-10-21T03:53:13.702Z,20.00
2022-10-21T03:55:46.107Z,18.85
2022-10-21T03:58:13.397Z,22.15
2022-10-21T04:00:40.606Z,21.95
2022-10-21T04:03:07.733Z,18.38
2022-10-21T04:05:35.478Z,20.50
2022-10-21T04:08:02.817Z,18.20
2022-10-21T04:10:30.169Z,23.48
2022-10-21T04:12:57.507Z,24.75
2022-10-21T04:15:24.637Z,25.95
2022-10-21T04:17:51.724Z,25.67
2022-10-21T04:20:19.615Z,28.27
2022-10-21T04:22:47.047Z,25.30
2022-10-21T04:25:14.335Z,25.90
2022-10-21T04:27:41.757Z,26.58
2022-10-21T04:30:09.413Z,27.17
2022-10-21T04:32:36.766Z,27.15
2022-10-21T04:35:04.556Z,24.35
2022-10-21T04:37:31.650Z,27.27
2022-10-21T04:39:58.780Z,22.02
2022-10-21T04:42:25.941Z,26.38
2022-10-21T04:44:53.177Z,27.50
2022-10-21T04:47:20.599Z,22.50
2022-10-21T04:49:47.849Z,26.75
2022-10-21T04:52:15.124Z,23.35
2022-10-21T04:54:42.510Z,20.17
2022-10-21T04:57:09.870Z,19.75
2022-10-21T04:59:36.885Z,21.23
2022-10-21T05:02:04.080Z,22.20
2022-10-21T05:04:31.433Z,20.88
2022-10-21T05:06:58.504Z,22.05
2022-10-21T05:09:25.699Z,22.98
2022-10-21T05:11:52.902Z,20.42
2022-10-21T05:14:22.598Z,25.00
2022-10-21T05:16:50.529Z,21.48
2022-10-21T05:19:17.871Z,19.52
2022-10-21T05:21:47.165Z,20.95
2022-10-21T05:24:16.981Z,18.38
2022-10-21T05:26:44.177Z,24.23
2022-10-21T05:29:11.386Z,21.80
2022-10-21T05:31:38.570Z,27.77
2022-10-21T05:34:05.907Z,23.42
2022-10-21T05:36:33.175Z,21.00
2022-10-21T05:39:00.406Z,20.98
2022-10-21T05:41:27.418Z,20.98
2022-10-21T05:43:54.545Z,24.27
2022-10-21T05:46:21.861Z,24.15
2022-10-21T05:51:26.535Z,24.10
2022-10-21T05:53:55.009Z,21.52
2022-10-21T05:56:22.743Z,25.50
2022-10-21T05:58:50.445Z,22.65
2022-10-21T06:01:17.682Z,20.42
2022-10-21T06:03:44.837Z,18.85
2022-10-21T06:06:12.236Z,20.33
2022-10-21T06:08:39.663Z,22.77
2022-10-21T06:11:13.098Z,21.13
2022-10-21T06:13:40.374Z,23.02
2022-10-21T06:16:08.589Z,21.92
2022-10-21T06:18:36.404Z,20.02
2022-10-21T06:21:04.157Z,21.70
2022-10-21T06:23:31.781Z,21.92
2022-10-21T06:26:00.047Z,22.50
2022-10-21T06:28:28.615Z,21.83
2022-10-21T06:30:56.466Z,21.75
2022-10-21T06:33:26.820Z,30.13
2022-10-21T06:35:56.011Z,24.40
2022-10-21T06:38:24.227Z,27.52
2022-10-21T06:40:51.457Z,22.95
2022-10-21T06:43:19.095Z,25.63
2022-10-21T06:45:46.435Z,24.23
2022-10-21T06:48:14.334Z,26.33
2022-10-21T06:50:41.688Z,25.50
2022-10-21T06:53:08.938Z,26.33
2022-10-21T06:55:36.259Z,25.05
2022-10-21T06:58:03.715Z,22.83
2022-10-21T07:03:03.133Z,25.73
2022-10-21T07:05:30.343Z,27.92
2022-10-21T07:07:57.625Z,26.55
2022-10-21T07:10:24.869Z,25.17
2022-10-21T07:12:52.436Z,28.63
2022-10-21T07:15:19.626Z,23.80
2022-10-21T07:17:46.857Z,23.80
2022-10-21T07:20:14.088Z,25.33
2022-10-21T07:22:41.137Z,29.25
2022-10-21T07:25:08.608Z,21.88
2022-10-21T07:27:35.765Z,29.98
2022-10-21T07:30:03.077Z,26.92
2022-10-21T07:32:30.320Z,25.63
2022-10-21T07:34:57.547Z,23.17
2022-10-21T07:37:24.860Z,29.20
2022-10-21T07:39:52.136Z,33.20
2022-10-21T07:42:19.372Z,30.30
2022-10-21T07:44:46.667Z,28.73
2022-10-21T07:47:13.898Z,53.75
2022-10-21T07:49:41.236Z,29.45
2022-10-21T07:52:08.409Z,43.92
2022-10-21T07:54:35.746Z,27.33
2022-10-21T07:57:03.248Z,24.48
2022-10-21T07:59:31.525Z,27.17
2022-10-21T08:01:58.831Z,25.88
2022-10-21T08:04:30.257Z,26.13
2022-10-21T08:06:57.987Z,25.08
2022-10-21T08:09:26.808Z,23.25
2022-10-21T08:11:54.361Z,25.83
2022-10-21T08:14:21.677Z,25.90
2022-10-21T08:16:53.099Z,23.40
2022-10-21T08:19:24.827Z,28.27
2022-10-21T08:21:52.313Z,25.63
2022-10-21T08:24:19.794Z,25.13
2022-10-21T08:26:46.928Z,25.10
2022-10-21T08:29:14.156Z,22.42
2022-10-21T08:31:41.639Z,27.10
2022-10-21T08:34:09.145Z,23.77
2022-10-21T08:36:38.035Z,23.38
2022-10-21T08:39:05.839Z,22.58
2022-10-21T08:42:08.110Z,24.02
2022-10-21T08:45:07.583Z,26.30
2022-10-21T08:47:45.671Z,21.77
2022-10-21T08:50:21.696Z,25.05
2022-10-21T08:53:02.341Z,23.73
2022-10-21T08:55:35.157Z,26.55
2022-10-21T08:58:03.932Z,26.08
2022-10-21T09:00:47.065Z,25.50
2022-10-21T09:03:33.317Z,25.40
2022-10-21T09:06:21.682Z,26.75
2022-10-21T09:09:21.378Z,23.80
2022-10-21T09:12:20.388Z,23.20
2022-10-21T09:14:57.631Z,40.70
2022-10-21T09:17:43.555Z,22.35
2022-10-21T09:20:19.533Z,25.27
2022-10-21T09:23:40.643Z,24.40
2022-10-21T09:26:33.075Z,23.00
2022-10-21T09:29:16.576Z,20.33
2022-10-21T09:31:44.598Z,25.33
2022-10-21T09:34:42.674Z,27.85
2022-10-21T09:37:18.745Z,24.30
2022-10-21T09:39:54.716Z,27.98
2022-10-21T09:42:42.659Z,23.02
2022-10-21T09:45:23.417Z,22.30
2022-10-21T09:48:00.118Z,23.98
2022-10-21T09:50:29.181Z,21.58
2022-10-21T09:53:02.929Z,25.10
2022-10-21T09:55:31.550Z,26.75
2022-10-21T09:58:03.794Z,24.75
2022-10-21T10:00:47.055Z,24.98
2022-10-21T10:03:33.533Z,26.38
2022-10-21T10:06:01.843Z,24.92
2022-10-21T10:08:40.213Z,23.98
2022-10-21T10:11:10.160Z,23.65
2022-10-21T10:13:43.412Z,23.40
2022-10-21T10:16:18.919Z,24.23
2022-10-21T10:18:46.299Z,23.33
2022-10-21T10:21:23.145Z,22.83
2022-10-21T10:23:55.649Z,22.63
2022-10-21T10:26:30.653Z,26.85
2022-10-21T10:29:08.695Z,31.17
2022-10-21T10:31:37.305Z,21.80
2022-10-21T10:34:09.307Z,21.50
2022-10-21T10:36:39.796Z,23.52
2022-10-21T10:39:17.385Z,21.60
2022-10-21T10:41:48.681Z,22.95
2022-10-21T10:44:31.892Z,26.00
2022-10-21T10:47:03.237Z,24.80
2022-10-21T10:49:40.085Z,24.70
2022-10-21T10:52:17.225Z,24.27
2022-10-21T10:54:44.737Z,28.45
2022-10-21T10:57:14.524Z,40.55
2022-10-21T10:59:41.719Z,40.17
2022-10-21T11:02:22.448Z,36.55
2022-10-21T11:05:08.569Z,21.65
2022-10-21T11:07:49.366Z,20.92
2022-10-21T11:10:39.547Z,20.42
2022-10-21T11:13:19.193Z,25.30
2022-10-21T11:16:50.423Z,22.77
2022-10-21T11:19:34.790Z,22.67
2022-10-21T11:22:36.022Z,23.25
2022-10-21T11:25:11.862Z,26.45
2022-10-21T11:28:02.606Z,22.55
2022-10-21T11:30:51.685Z,21.58
2022-10-21T11:34:01.780Z,19.52
2022-10-21T11:36:48.486Z,23.33
2022-10-21T11:39:36.661Z,21.45
2022-10-21T11:42:23.337Z,24.08
2022-10-21T11:44:53.486Z,21.60
2022-10-21T11:47:26.216Z,30.63
2022-10-21T11:50:12.219Z,19.30
2022-10-21T11:52:48.863Z,22.42
2022-10-21T11:55:31.400Z,22.35
2022-10-21T11:58:24.351Z,22.90
2022-10-21T12:00:59.018Z,20.08
2022-10-21T12:03:37.275Z,26.80
2022-10-21T12:06:46.067Z,23.65
2022-10-21T12:09:19.542Z,22.50
2022-10-21T12:11:52.074Z,26.25
2022-10-21T12:14:21.946Z,20.27
2022-10-21T12:16:50.586Z,22.27
2022-10-21T12:19:18.098Z,23.48
2022-10-21T12:21:46.166Z,21.63
2022-10-21T12:24:47.645Z,21.13
2022-10-21T12:27:56.010Z,19.30
2022-10-21T12:30:44.611Z,20.60
2022-10-21T12:33:11.917Z,19.75
2022-10-21T12:36:12.191Z,21.40
2022-10-21T12:38:42.240Z,20.88
2022-10-21T12:41:24.700Z,20.63
2022-10-21T12:44:04.137Z,19.60
2022-10-21T12:46:36.212Z,20.23
2022-10-21T12:49:28.123Z,19.77
2022-10-21T12:52:03.770Z,20.15
2022-10-21T12:55:02.395Z,26.67
2022-10-21T12:57:33.483Z,22.98
2022-10-21T13:00:28.654Z,21.55
2022-10-21T13:03:03.292Z,28.63
2022-10-21T13:05:39.806Z,22.80
2022-10-21T13:08:24.641Z,28.67
2022-10-21T13:11:06.533Z,23.23
2022-10-21T13:13:33.922Z,24.05
2022-10-21T13:16:22.880Z,29.02
2022-10-21T13:19:18.215Z,24.60
2022-10-21T13:21:52.855Z,23.98
2022-10-21T13:24:30.755Z,27.20
2022-10-21T13:27:03.970Z,25.88
2022-10-21T13:29:33.574Z,24.35
2022-10-21T13:32:17.688Z,23.00
2022-10-21T13:34:51.207Z,21.00
2022-10-21T13:37:52.570Z,26.40
2022-10-21T13:40:22.857Z,22.15
2022-10-21T13:42:58.126Z,25.90
2022-10-21T13:45:45.700Z,23.75
2022-10-21T13:48:15.888Z,22.85
2022-10-21T13:50:46.038Z,24.58
2022-10-21T13:53:37.314Z,27.55
2022-10-21T13:56:09.056Z,25.08
2022-10-21T13:58:39.649Z,23.77
2022-10-21T14:01:12.798Z,26.20
2022-10-21T14:03:42.370Z,25.05
2022-10-21T14:06:13.029Z,21.30
2022-10-21T14:08:46.327Z,26.20
2022-10-21T14:11:19.197Z,30.83
2022-10-21T14:13:48.685Z,25.40
2022-10-21T14:16:30.323Z,30.87
2022-10-21T14:18:59.060Z,24.23
2022-10-21T14:21:32.587Z,23.65
2022-10-21T14:24:01.119Z,24.42
2022-10-21T14:26:32.065Z,27.73
2022-10-21T14:29:01.278Z,26.20
2022-10-21T14:31:28.833Z,28.20
2022-10-21T14:33:56.374Z,27.70
2022-10-21T14:36:26.259Z,27.63
2022-10-21T14:39:07.860Z,26.27
2022-10-21T14:41:38.068Z,28.55
2022-10-21T14:44:16.717Z,24.25
2022-10-21T14:46:47.564Z,24.73
2022-10-21T14:49:42.029Z,28.80
2022-10-21T14:52:17.405Z,28.20
2022-10-21T14:54:49.765Z,27.15
2022-10-21T14:57:39.738Z,29.17
2022-10-21T15:00:19.865Z,30.45
2022-10-21T15:02:48.543Z,102.05
2022-10-21T15:05:34.552Z,100.57
2022-10-21T15:08:34.644Z,46.20
2022-10-21T15:11:12.476Z,30.13
2022-10-21T15:13:39.592Z,28.70
2022-10-21T15:16:19.145Z,25.10
2022-10-21T15:18:52.974Z,25.80
2022-10-21T15:21:36.201Z,24.48
2022-10-21T15:24:05.808Z,30.42
2022-10-21T15:26:38.315Z,26.80
2022-10-21T15:29:15.048Z,30.75
2022-10-21T15:31:42.878Z,24.90
2022-10-21T15:34:14.666Z,25.77
2022-10-21T15:36:43.086Z,24.65
2022-10-21T15:39:11.117Z,27.48
2022-10-21T15:41:39.485Z,30.73
2022-10-21T15:44:29.224Z,26.98
2022-10-21T15:47:00.886Z,22.95
2022-10-21T15:49:41.677Z,26.95
2022-10-21T15:52:09.995Z,26.83
2022-10-21T15:54:37.328Z,32.97
2022-10-21T15:57:15.684Z,29.00
2022-10-21T15:59:43.430Z,25.48
2022-10-21T16:02:16.911Z,28.83
2022-10-21T16:04:46.068Z,30.95
2022-10-21T16:07:29.702Z,30.10
2022-10-21T16:09:57.394Z,29.42
2022-10-21T16:12:24.571Z,27.65
2022-10-21T16:14:51.698Z,30.17
2022-10-21T16:17:19.645Z,32.75
2022-10-21T16:19:46.939Z,30.27
2022-10-21T16:22:20.525Z,34.80
2022-10-21T16:24:47.737Z,32.33
2022-10-21T16:27:26.414Z,31.60
2022-10-21T16:29:58.734Z,32.83
2022-10-21T16:32:25.965Z,36.55
2022-10-21T16:34:53.096Z,46.03
2022-10-21T16:37:27.818Z,39.30
2022-10-21T16:39:55.121Z,34.50
2022-10-21T16:42:22.336Z,36.63
2022-10-21T16:44:50.865Z,34.58
2022-10-21T16:47:20.474Z,33.65
2022-10-21T16:49:49.447Z,35.15
2022-10-21T16:52:17.178Z,33.38
2022-10-21T16:54:48.641Z,31.63
2022-10-21T16:57:16.382Z,32.47
2022-10-21T16:59:43.690Z,30.08
2022-10-21T17:02:20.885Z,30.25
2022-10-21T17:04:48.200Z,26.95
2022-10-21T17:07:15.345Z,31.27
2022-10-21T17:09:42.435Z,28.67
2022-10-21T17:12:11.316Z,28.85
2022-10-21T17:14:38.550Z,35.53
2022-10-21T17:17:05.654Z,33.15
2022-10-21T17:19:33.127Z,35.15
2022-10-21T17:22:00.321Z,34.35
2022-10-21T17:24:28.315Z,33.40
2022-10-21T17:26:57.926Z,30.35
2022-10-21T17:29:25.251Z,28.67
2022-10-21T17:31:52.362Z,33.05
2022-10-21T17:34:27.126Z,31.25
2022-10-21T17:36:54.555Z,32.00
2022-10-21T17:39:22.487Z,30.95
2022-10-21T17:41:50.291Z,32.15
2022-10-21T17:44:19.390Z,27.95
2022-10-21T17:46:48.039Z,31.02
2022-10-21T17:49:15.809Z,31.88
2022-10-21T17:51:43.268Z,31.35
2022-10-21T17:54:11.050Z,30.27
2022-10-21T17:56:38.731Z,27.60
2022-10-21T17:59:05.850Z,28.77
2022-10-21T18:01:33.235Z,28.48
2022-10-21T18:04:00.398Z,29.13
2022-10-21T18:06:27.846Z,34.58
2022-10-21T18:08:57.226Z,29.02
2022-10-21T18:11:24.780Z,29.87
2022-10-21T18:13:55.043Z,29.35
2022-10-21T18:16:24.335Z,29.42
2022-10-21T18:18:52.016Z,28.42
2022-10-21T18:21:22.049Z,32.33
2022-10-21T18:23:52.764Z,30.70
2022-10-21T18:26:25.598Z,31.20
2022-10-21T18:28:57.467Z,32.28
2022-10-21T18:31:26.588Z,28.42
2022-10-21T18:33:55.468Z,32.72
2022-10-21T18:36:23.817Z,30.52
2022-10-21T18:38:51.134Z,31.33
2022-10-21T18:41:21.143Z,31.95
2022-10-21T18:46:21.230Z,29.98
2022-10-21T18:48:48.895Z,36.15
2022-10-21T18:51:17.440Z,33.78
2022-10-21T18:53:48.452Z,32.88
2022-10-21T18:56:18.421Z,34.97
2022-10-21T18:58:45.765Z,27.98
2022-10-21T19:01:15.180Z,33.05
2022-10-21T19:03:43.479Z,30.67
2022-10-21T19:06:36.261Z,30.63
2022-10-21T19:09:13.499Z,28.73
2022-10-21T19:11:41.699Z,29.83
2022-10-21T19:14:11.428Z,32.15
2022-10-21T19:16:41.457Z,32.28
2022-10-21T19:19:09.611Z,31.10
2022-10-21T19:21:36.961Z,32.30
2022-10-21T19:24:04.738Z,33.03
2022-10-21T19:26:33.460Z,31.35
2022-10-21T19:29:16.748Z,32.63
2022-10-21T19:34:17.934Z,31.25
2022-10-21T19:36:45.077Z,34.90
2022-10-21T19:39:13.144Z,30.98
2022-10-21T19:41:41.026Z,34.42
2022-10-21T19:44:08.637Z,33.42
2022-10-21T19:46:36.094Z,36.05
2022-10-21T19:49:05.150Z,31.42
2022-10-21T19:51:32.886Z,37.10
2022-10-21T19:54:00.227Z,40.45
2022-10-21T19:56:30.802Z,35.53
2022-10-21T19:59:00.598Z,34.28
2022-10-21T20:01:27.843Z,39.67
2022-10-21T20:03:55.783Z,40.20
2022-10-21T20:06:28.876Z,38.22
2022-10-21T20:08:59.200Z,40.83
2022-10-21T20:13:54.996Z,39.45
2022-10-21T20:16:27.379Z,41.08
2022-10-21T20:18:55.924Z,38.72
2022-10-21T20:21:24.306Z,38.28
2022-10-21T20:23:51.859Z,41.58
2022-10-21T20:26:19.226Z,36.47
2022-10-21T20:28:46.622Z,41.53
2022-10-21T20:31:15.757Z,38.97
2022-10-21T20:33:48.736Z,39.85
2022-10-21T20:36:21.979Z,38.65
2022-10-21T20:38:50.083Z,35.38
2022-10-21T20:41:26.208Z,37.72
2022-10-21T20:43:54.363Z,40.85
2022-10-21T20:46:25.276Z,42.58
2022-10-21T20:48:54.115Z,39.22
2022-10-21T20:51:27.225Z,39.60
2022-10-21T20:53:56.985Z,41.85
2022-10-21T20:56:28.010Z,42.83
2022-10-21T20:58:55.432Z,45.88
2022-10-21T21:01:28.108Z,43.70
2022-10-21T21:03:58.128Z,46.05
2022-10-21T21:06:26.710Z,42.33
2022-10-21T21:09:22.221Z,41.75
2022-10-21T21:11:41.383Z,49.75
2022-10-21T21:14:08.663Z,44.17
2022-10-21T21:16:35.945Z,46.35
2022-10-21T21:19:05.587Z,49.53
2022-10-21T21:21:35.571Z,47.15
2022-10-21T21:24:02.861Z,47.83
2022-10-21T21:26:35.283Z,43.15
2022-10-21T21:29:03.106Z,42.67
2022-10-21T21:31:31.490Z,48.33
2022-10-21T21:33:59.157Z,47.22
2022-10-21T21:36:26.828Z,43.30
2022-10-21T21:38:54.410Z,44.72
2022-10-21T21:41:23.442Z,45.60
2022-10-21T21:43:52.247Z,46.17
2022-10-21T21:46:24.336Z,44.53
2022-10-21T21:49:00.930Z,44.15
2022-10-21T21:51:31.478Z,43.87
2022-10-21T21:53:59.018Z,42.80
2022-10-21T21:56:27.306Z,44.30
2022-10-21T21:58:58.254Z,50.35
2022-10-21T22:01:30.030Z,46.97
2022-10-21T22:03:58.298Z,43.03
2022-10-21T22:06:28.810Z,45.00
2022-10-21T22:08:56.648Z,46.42
2022-10-21T22:11:27.251Z,46.40
2022-10-21T22:13:54.647Z,46.92
2022-10-21T22:16:24.496Z,46.63
2022-10-21T22:18:52.278Z,49.17
2022-10-21T22:21:20.235Z,46.95
2022-10-21T22:23:48.593Z,47.75
2022-10-21T22:26:16.589Z,52.25
2022-10-21T22:28:44.547Z,46.97
2022-10-21T22:31:16.053Z,44.78
2022-10-21T22:36:16.747Z,50.35
2022-10-21T22:38:45.053Z,46.03
2022-10-21T22:41:13.061Z,48.97
2022-10-21T22:43:40.902Z,48.35
2022-10-21T22:48:55.360Z,49.40
2022-10-21T22:51:22.487Z,49.05
2022-10-21T22:53:55.115Z,53.78
2022-10-21T22:56:25.089Z,53.55
2022-10-21T22:58:52.593Z,52.25
2022-10-21T23:01:20.031Z,58.45
2022-10-21T23:03:47.166Z,54.33
2022-10-21T23:06:14.723Z,60.00
2022-10-21T23:08:42.108Z,52.70
2022-10-21T23:11:09.354Z,62.42
2022-10-21T23:13:36.496Z,60.25
2022-10-21T23:16:03.642Z,59.88
2022-10-21T23:18:30.897Z,65.28
2022-10-21T23:20:58.056Z,59.20
2022-10-21T23:23:25.357Z,50.88
2022-10-21T23:25:52.479Z,62.80
2022-10-21T23:28:19.614Z,57.58
2022-10-21T23:30:48.278Z,70.47
2022-10-21T23:33:15.586Z,85.38
2022-10-21T23:35:42.719Z,71.90
2022-10-21T23:38:09.766Z,69.95
2022-10-21T23:40:37.065Z,70.70
2022-10-21T23:43:04.914Z,58.83
2022-10-21T23:45:32.159Z,66.07
2022-10-21T23:47:59.415Z,75.43
2022-10-21T23:50:26.977Z,62.85
2022-10-21T23:52:54.158Z,55.30
2022-10-21T23:55:21.709Z,77.13
2022-10-21T23:57:48.984Z,71.40
